Time,TemperatureF,DewpointF,PressureIn,WindDirection,WindDirectionDegrees,WindSpeedMPH,WindSpeedGustMPH,Humidity,HourlyPrecipIn,Conditions,Clouds,dailyrainin,SoftwareType,DateUTC
2013-11-14 00:04:00,36.7,17.3,30.30,ESE,116,0.0,2.0,45,0.00,,,0.00,Wunderground v.1.15,2013-11-14 06:04:00,
2013-11-14 00:09:00,36.5,17.1,30.29,ESE,108,0.0,2.0,45,0.00,,,0.00,Wunderground v.1.15,2013-11-14 06:09:00,
2013-11-14 00:14:00,36.5,17.1,30.29,East,101,0.0,2.0,45,0.00,,,0.00,Wunderground v.1.15,2013-11-14 06:14:00,
2013-11-14 00:19:00,36.3,17.5,30.29,ESE,111,0.0,2.0,46,0.00,,,0.00,Wunderground v.1.15,2013-11-14 06:19:00,
2013-11-14 00:24:00,36.2,17.4,30.29,South,169,0.0,2.0,46,0.00,,,0.00,Wunderground v.1.15,2013-11-14 06:24:00,
2013-11-14 00:29:00,36.4,17.6,30.29,ESE,118,1.0,1.0,46,0.00,,,0.00,Wunderground v.1.15,2013-11-14 06:29:00,
2013-11-14 00:34:00,36.4,17.6,30.29,ESE,121,0.0,2.0,46,0.00,,,0.00,Wunderground v.1.15,2013-11-14 06:34:00,
2013-11-14 00:39:00,36.2,17.4,30.29,ESE,106,0.0,2.0,46,0.00,,,0.00,Wunderground v.1.15,2013-11-14 06:39:00,
2013-11-14 00:49:00,36.0,17.7,30.28,ESE,112,0.0,2.0,47,0.00,,,0.00,Wunderground v.1.15,2013-11-14 06:49:00,
2013-11-14 00:54:00,35.9,17.6,30.28,East,97,0.0,2.0,47,0.00,,,0.00,Wunderground v.1.15,2013-11-14 06:54:00,
2013-11-14 00:59:00,35.7,17.4,30.28,ESE,122,0.0,2.0,47,0.00,,,0.00,Wunderground v.1.15,2013-11-14 06:59:00,
2013-11-14 01:24:00,35.0,17.7,30.28,SE,127,0.0,2.0,49,0.00,,,0.00,Wunderground v.1.15,2013-11-14 07:24:00,
2013-11-14 01:29:00,35.1,17.8,30.27,ESE,111,0.0,2.0,49,0.00,,,0.00,Wunderground v.1.15,2013-11-14 07:29:00,
2013-11-14 01:34:00,35.1,17.8,30.28,ESE,113,0.0,2.0,49,0.00,,,0.00,Wunderground v.1.15,2013-11-14 07:34:00,
2013-11-14 01:39:00,35.2,18.4,30.27,SE,127,0.0,2.0,50,0.00,,,0.00,Wunderground v.1.15,2013-11-14 07:39:00,
2013-11-14 01:44:00,35.2,17.9,30.27,ESE,114,0.0,2.0,49,0.00,,,0.00,Wunderground v.1.15,2013-11-14 07:44:00,
2013-11-14 01:49:00,35.3,18.0,30.27,ESE,119,0.0,2.0,49,0.00,,,0.00,Wunderground v.1.15,2013-11-14 07:49:00,
2013-11-14 01:54:00,35.2,17.9,30.27,ESE,117,0.0,2.0,49,0.00,,,0.00,Wunderground v.1.15,2013-11-14 07:54:00,
2013-11-14 01:59:00,35.2,17.9,30.27,East,97,0.0,2.0,49,0.00,,,0.00,Wunderground v.1.15,2013-11-14 07:59:00,
2013-11-14 02:09:00,34.9,18.1,30.27,ESE,118,0.0,2.0,50,0.00,,,0.00,Wunderground v.1.15,2013-11-14 08:09:00,
2013-11-14 02:19:00,34.0,18.2,30.26,ESE,118,0.0,2.0,52,0.00,,,0.00,Wunderground v.1.15,2013-11-14 08:19:00,
2013-11-14 02:24:00,33.5,17.7,30.27,SE,125,0.0,2.0,52,0.00,,,0.00,Wunderground v.1.15,2013-11-14 08:24:00,
2013-11-14 02:34:00,32.3,17.5,30.26,SE,126,0.0,2.0,54,0.00,,,0.00,Wunderground v.1.15,2013-11-14 08:34:00,
2013-11-14 02:39:00,31.5,17.2,30.27,SE,126,0.0,2.0,55,0.00,,,0.00,Wunderground v.1.15,2013-11-14 08:39:00,
2013-11-14 02:49:00,30.1,17.1,30.26,SE,125,0.0,2.0,58,0.00,,,0.00,Wunderground v.1.15,2013-11-14 08:49:00,
2013-11-14 02:59:00,29.3,17.9,30.26,SE,126,0.0,2.0,62,0.00,,,0.00,Wunderground v.1.15,2013-11-14 08:59:00,
2013-11-14 03:04:00,28.9,17.5,30.26,SE,125,0.0,2.0,62,0.00,,,0.00,Wunderground v.1.15,2013-11-14 09:04:00,
2013-11-14 03:14:00,28.6,18.3,30.26,SE,125,0.0,2.0,65,0.00,,,0.00,Wunderground v.1.15,2013-11-14 09:14:00,
2013-11-14 03:19:00,28.4,18.5,30.26,SE,125,0.0,2.0,66,0.00,,,0.00,Wunderground v.1.15,2013-11-14 09:19:00,
2013-11-14 03:29:00,27.4,17.9,30.26,SE,125,0.0,2.0,67,0.00,,,0.00,Wunderground v.1.15,2013-11-14 09:29:00,
2013-11-14 03:39:00,27.1,17.9,30.26,SE,125,0.0,2.0,68,0.00,,,0.00,Wunderground v.1.15,2013-11-14 09:39:00,
2013-11-14 03:49:00,26.7,17.9,30.26,SE,125,0.0,2.0,69,0.00,,,0.00,Wunderground v.1.15,2013-11-14 09:49:00,
2013-11-14 03:54:00,26.3,17.8,30.25,SE,125,0.0,2.0,70,0.00,,,0.00,Wunderground v.1.15,2013-11-14 09:54:00,
2013-11-14 03:59:00,25.7,17.6,30.25,SE,125,0.0,2.0,71,0.00,,,0.00,Wunderground v.1.15,2013-11-14 09:59:00,
2013-11-14 04:09:00,26.1,17.6,30.25,SE,125,0.0,2.0,70,0.00,,,0.00,Wunderground v.1.15,2013-11-14 10:09:00,
2013-11-14 04:19:00,25.4,17.6,30.25,SE,125,0.0,2.0,72,0.00,,,0.00,Wunderground v.1.15,2013-11-14 10:19:00,
2013-11-14 04:29:00,25.0,17.6,30.25,SE,125,0.0,2.0,73,0.00,,,0.00,Wunderground v.1.15,2013-11-14 10:29:00,
2013-11-14 04:34:00,24.7,17.6,30.25,SE,125,0.0,2.0,74,0.00,,,0.00,Wunderground v.1.15,2013-11-14 10:34:00,
2013-11-14 04:44:00,24.7,17.9,30.25,SE,125,0.0,2.0,75,0.00,,,0.00,Wunderground v.1.15,2013-11-14 10:44:00,
2013-11-14 04:54:00,24.6,17.5,30.25,SE,125,0.0,2.0,74,0.00,,,0.00,Wunderground v.1.15,2013-11-14 10:54:00,
2013-11-14 04:59:00,25.2,17.8,30.24,SE,125,0.0,2.0,73,0.00,,,0.00,Wunderground v.1.15,2013-11-14 10:59:00,
2013-11-14 05:04:00,25.7,17.9,30.24,SE,125,0.0,2.0,72,0.00,,,0.00,Wunderground v.1.15,2013-11-14 11:04:00,
2013-11-14 05:14:00,26.3,17.8,30.24,SE,126,0.0,2.0,70,0.00,,,0.00,Wunderground v.1.15,2013-11-14 11:14:00,
2013-11-14 05:24:00,26.7,17.9,30.24,SE,125,0.0,2.0,69,0.00,,,0.00,Wunderground v.1.15,2013-11-14 11:24:00,
2013-11-14 05:34:00,27.9,19.0,30.24,SSE,160,0.0,2.0,69,0.00,,,0.00,Wunderground v.1.15,2013-11-14 11:34:00,
2013-11-14 05:44:00,27.7,18.2,30.24,SSE,160,0.0,2.0,67,0.00,,,0.00,Wunderground v.1.15,2013-11-14 11:44:00,
2013-11-14 05:49:00,27.1,17.9,30.24,SSE,160,0.0,2.0,68,0.00,,,0.00,Wunderground v.1.15,2013-11-14 11:49:00,
2013-11-14 05:59:00,26.0,17.9,30.24,SSE,160,0.0,2.0,71,0.00,,,0.00,Wunderground v.1.15,2013-11-14 11:59:00,
2013-11-14 06:04:00,26.0,18.5,30.24,SSE,161,0.0,2.0,73,0.00,,,0.00,Wunderground v.1.15,2013-11-14 12:04:00,
2013-11-14 06:14:00,26.4,18.3,30.24,SSE,161,0.0,2.0,71,0.00,,,0.00,Wunderground v.1.15,2013-11-14 12:14:00,
2013-11-14 06:19:00,26.0,17.9,30.24,SSE,162,0.0,2.0,71,0.00,,,0.00,Wunderground v.1.15,2013-11-14 12:19:00,
2013-11-14 06:29:00,25.3,17.5,30.24,SSE,160,0.0,2.0,72,0.00,,,0.00,Wunderground v.1.15,2013-11-14 12:29:00,
2013-11-14 06:39:00,25.7,17.9,30.24,SSE,158,0.0,2.0,72,0.00,,,0.00,Wunderground v.1.15,2013-11-14 12:39:00,
2013-11-14 06:49:00,27.3,18.5,30.24,East,94,0.0,2.0,69,0.00,,,0.00,Wunderground v.1.15,2013-11-14 12:49:00,
2013-11-14 06:54:00,28.1,18.5,30.24,East,86,0.0,2.0,67,0.00,,,0.00,Wunderground v.1.15,2013-11-14 12:54:00,
2013-11-14 06:59:00,28.5,18.9,30.24,ESE,108,0.0,2.0,67,0.00,,,0.00,Wunderground v.1.15,2013-11-14 12:59:00,
2013-11-14 07:09:00,28.8,18.5,30.24,SE,125,0.0,2.0,65,0.00,,,0.00,Wunderground v.1.15,2013-11-14 13:09:00,
2013-11-14 07:19:00,30.3,19.2,30.24,ESE,122,0.0,2.0,63,0.00,,,0.00,Wunderground v.1.15,2013-11-14 13:19:00,
2013-11-14 07:29:00,33.0,19.8,30.24,ESE,117,0.0,2.0,58,0.00,,,0.00,Wunderground v.1.15,2013-11-14 13:29:00,
2013-11-14 07:34:00,34.1,20.0,30.24,ESE,112,0.0,2.0,56,0.00,,,0.00,Wunderground v.1.15,2013-11-14 13:34:00,
2013-11-14 07:39:00,34.6,19.6,30.24,ESE,106,0.0,2.0,54,0.00,,,0.00,Wunderground v.1.15,2013-11-14 13:39:00,
2013-11-14 07:44:00,35.1,19.7,30.24,ESE,114,0.0,2.0,53,0.00,,,0.00,Wunderground v.1.15,2013-11-14 13:44:00,
2013-11-14 07:49:00,35.7,19.8,30.24,ESE,117,0.0,2.0,52,0.00,,,0.00,Wunderground v.1.15,2013-11-14 13:49:00,
2013-11-14 07:54:00,36.1,19.7,30.24,SE,129,0.0,2.0,51,0.00,,,0.00,Wunderground v.1.15,2013-11-14 13:54:00,
2013-11-14 07:59:00,36.5,20.1,30.24,ESE,115,0.0,2.0,51,0.00,,,0.00,Wunderground v.1.15,2013-11-14 13:59:00,
2013-11-14 08:09:00,36.9,20.4,30.24,East,94,1.0,2.0,51,0.00,,,0.00,Wunderground v.1.15,2013-11-14 14:09:00,
2013-11-14 08:14:00,37.3,19.9,30.24,East,97,1.0,2.0,49,0.00,,,0.00,Wunderground v.1.15,2013-11-14 14:14:00,
2013-11-14 08:19:00,37.6,19.7,30.24,ESE,117,1.0,3.0,48,0.00,,,0.00,Wunderground v.1.15,2013-11-14 14:19:00,
2013-11-14 08:29:00,38.3,19.8,30.23,East,80,2.0,3.0,47,0.00,,,0.00,Wunderground v.1.15,2013-11-14 14:29:00,
2013-11-14 08:34:00,38.7,20.2,30.23,ESE,121,2.0,4.0,47,0.00,,,0.00,Wunderground v.1.15,2013-11-14 14:34:00,
2013-11-14 08:44:00,40.2,20.0,30.23,SE,125,2.0,6.0,44,0.00,,,0.00,Wunderground v.1.15,2013-11-14 14:44:00,
2013-11-14 08:54:00,41.4,20.5,30.23,ESE,106,2.0,3.0,43,0.00,,,0.00,Wunderground v.1.15,2013-11-14 14:54:00,
2013-11-14 09:04:00,42.5,21.0,30.23,ESE,110,1.0,3.0,42,0.00,,,0.00,Wunderground v.1.15,2013-11-14 15:04:00,
2013-11-14 09:09:00,43.3,21.1,30.23,ESE,122,1.0,1.0,41,0.00,,,0.00,Wunderground v.1.15,2013-11-14 15:09:00,
2013-11-14 09:14:00,43.7,21.5,30.22,SE,132,1.0,2.0,41,0.00,,,0.00,Wunderground v.1.15,2013-11-14 15:14:00,
2013-11-14 09:24:00,44.5,20.4,30.22,ESE,105,2.0,4.0,38,0.00,,,0.00,Wunderground v.1.15,2013-11-14 15:24:00,
2013-11-14 09:29:00,45.1,21.0,30.22,WSW,253,1.0,1.0,38,0.00,,,0.00,Wunderground v.1.15,2013-11-14 15:29:00,
2013-11-14 09:34:00,45.8,21.6,30.22,SE,128,1.0,5.0,38,0.00,,,0.00,Wunderground v.1.15,2013-11-14 15:34:00,
2013-11-14 09:44:00,46.5,21.6,30.21,SE,124,2.0,6.0,37,0.00,,,0.00,Wunderground v.1.15,2013-11-14 15:44:00,
2013-11-14 09:49:00,47.2,21.6,30.22,ESE,111,2.0,2.0,36,0.00,,,0.00,Wunderground v.1.15,2013-11-14 15:49:00,
2013-11-14 09:59:00,47.7,20.7,30.21,West,260,2.0,2.0,34,0.00,,,0.00,Wunderground v.1.15,2013-11-14 15:59:00,
2013-11-14 10:09:00,48.7,21.5,30.21,ESE,123,3.0,3.0,34,0.00,,,0.00,Wunderground v.1.15,2013-11-14 16:09:00,
2013-11-14 10:14:00,48.9,21.0,30.20,ESE,122,3.0,3.0,33,0.00,,,0.00,Wunderground v.1.15,2013-11-14 16:14:00,
2013-11-14 10:19:00,49.5,20.8,30.20,SE,136,3.0,3.0,32,0.00,,,0.00,Wunderground v.1.15,2013-11-14 16:19:00,
2013-11-14 10:24:00,49.5,19.3,30.20,SE,129,3.0,5.0,30,0.00,,,0.00,Wunderground v.1.15,2013-11-14 16:24:00,
2013-11-14 10:34:00,49.5,19.3,30.20,ESE,108,3.0,8.0,30,0.00,,,0.00,Wunderground v.1.15,2013-11-14 16:34:00,
2013-11-14 10:39:00,49.9,21.2,30.19,ENE,75,3.0,3.0,32,0.00,,,0.00,Wunderground v.1.15,2013-11-14 16:39:00,
2013-11-14 10:49:00,49.8,18.8,30.19,SE,129,3.0,5.0,29,0.00,,,0.00,Wunderground v.1.15,2013-11-14 16:49:00,
2013-11-14 10:59:00,50.0,18.1,30.18,ESE,112,4.0,4.0,28,0.00,,,0.00,Wunderground v.1.15,2013-11-14 16:59:00,
2013-11-14 11:04:00,50.2,18.3,30.18,SE,129,4.0,4.0,28,0.00,,,0.00,Wunderground v.1.15,2013-11-14 17:04:00,
2013-11-14 11:14:00,51.0,17.3,30.17,SSE,160,4.0,5.0,26,0.00,,,0.00,Wunderground v.1.15,2013-11-14 17:14:00,
2013-11-14 11:19:00,51.4,16.7,30.17,East,96,4.0,8.0,25,0.00,,,0.00,Wunderground v.1.15,2013-11-14 17:19:00,
2013-11-14 11:24:00,51.7,16.0,30.17,SSE,155,4.0,8.0,24,0.00,,,0.00,Wunderground v.1.15,2013-11-14 17:24:00,
2013-11-14 11:29:00,52.1,15.4,30.16,SSE,167,4.0,5.0,23,0.00,,,0.00,Wunderground v.1.15,2013-11-14 17:29:00,
2013-11-14 11:39:00,52.5,16.7,30.16,ESE,102,3.0,3.0,24,0.00,,,0.00,Wunderground v.1.15,2013-11-14 17:39:00,
2013-11-14 11:44:00,53.6,16.6,30.15,ESE,115,3.0,3.0,23,0.00,,,0.00,Wunderground v.1.15,2013-11-14 17:44:00,
2013-11-14 11:49:00,53.7,15.7,30.14,SE,145,3.0,4.0,22,0.00,,,0.00,Wunderground v.1.15,2013-11-14 17:49:00,
2013-11-14 11:54:00,53.8,17.8,30.14,ESE,104,3.0,5.0,24,0.00,,,0.00,Wunderground v.1.15,2013-11-14 17:54:00,
2013-11-14 11:59:00,53.7,15.7,30.14,ESE,110,4.0,4.0,22,0.00,,,0.00,Wunderground v.1.15,2013-11-14 17:59:00,
2013-11-14 12:04:00,53.9,15.9,30.13,ESE,121,5.0,5.0,22,0.00,,,0.00,Wunderground v.1.15,2013-11-14 18:04:00,
2013-11-14 12:09:00,54.3,17.2,30.13,SSW,197,4.0,4.0,23,0.00,,,0.00,Wunderground v.1.15,2013-11-14 18:09:00,
2013-11-14 12:14:00,54.3,15.1,30.13,ESE,113,4.0,4.0,21,0.00,,,0.00,Wunderground v.1.15,2013-11-14 18:14:00,
2013-11-14 12:19:00,54.6,15.4,30.12,ESE,111,4.0,4.0,21,0.00,,,0.00,Wunderground v.1.15,2013-11-14 18:19:00,
2013-11-14 12:24:00,54.6,15.4,30.12,ESE,109,4.0,8.0,21,0.00,,,0.00,Wunderground v.1.15,2013-11-14 18:24:00,
2013-11-14 12:29:00,53.8,15.8,30.12,SSE,154,4.0,9.0,22,0.00,,,0.00,Wunderground v.1.15,2013-11-14 18:29:00,
2013-11-14 12:39:00,53.7,15.7,30.12,ESE,115,4.0,9.0,22,0.00,,,0.00,Wunderground v.1.15,2013-11-14 18:39:00,
2013-11-14 12:49:00,54.5,15.3,30.11,SE,132,5.0,8.0,21,0.00,,,0.00,Wunderground v.1.15,2013-11-14 18:49:00,
2013-11-14 12:59:00,55.5,17.2,30.11,SE,134,3.0,3.0,22,0.00,,,0.00,Wunderground v.1.15,2013-11-14 18:59:00,
2013-11-14 13:09:00,56.6,15.9,30.10,ENE,66,4.0,4.0,20,0.00,,,0.00,Wunderground v.1.15,2013-11-14 19:09:00,
2013-11-14 13:14:00,56.0,16.6,30.09,ESE,121,4.0,4.0,21,0.00,,,0.00,Wunderground v.1.15,2013-11-14 19:14:00,
2013-11-14 13:24:00,56.1,15.5,30.08,East,94,3.0,4.0,20,0.00,,,0.00,Wunderground v.1.15,2013-11-14 19:24:00,
2013-11-14 13:34:00,55.9,15.3,30.08,ESE,117,2.0,5.0,20,0.00,,,0.00,Wunderground v.1.15,2013-11-14 19:34:00,
2013-11-14 13:39:00,56.3,15.7,30.08,NE,46,3.0,3.0,20,0.00,,,0.00,Wunderground v.1.15,2013-11-14 19:39:00,
2013-11-14 13:44:00,56.7,16.0,30.07,East,100,3.0,3.0,20,0.00,,,0.00,Wunderground v.1.15,2013-11-14 19:44:00,
2013-11-14 13:49:00,56.9,17.3,30.08,SSE,148,3.0,3.0,21,0.00,,,0.00,Wunderground v.1.15,2013-11-14 19:49:00,
2013-11-14 13:59:00,57.5,15.5,30.07,ENE,72,3.0,3.0,19,0.00,,,0.00,Wunderground v.1.15,2013-11-14 19:59:00,
2013-11-14 14:09:00,57.9,15.8,30.07,NE,53,3.0,3.0,19,0.00,,,0.00,Wunderground v.1.15,2013-11-14 20:09:00,
2013-11-14 14:19:00,57.4,16.6,30.07,ENE,63,3.0,3.0,20,0.00,,,0.00,Wunderground v.1.15,2013-11-14 20:19:00,
2013-11-14 14:24:00,57.8,16.9,30.07,SE,136,2.0,3.0,20,0.00,,,0.00,Wunderground v.1.15,2013-11-14 20:24:00,
2013-11-14 14:29:00,58.1,17.2,30.07,ESE,108,3.0,4.0,20,0.00,,,0.00,Wunderground v.1.15,2013-11-14 20:29:00,
2013-11-14 14:34:00,58.0,15.9,30.06,SSE,153,4.0,4.0,19,0.00,,,0.00,Wunderground v.1.15,2013-11-14 20:34:00,
2013-11-14 14:44:00,57.6,16.8,30.07,SE,134,4.0,5.0,20,0.00,,,0.00,Wunderground v.1.15,2013-11-14 20:44:00,
2013-11-14 14:54:00,56.5,17.0,30.07,ENE,73,3.0,11.0,21,0.00,,,0.00,Wunderground v.1.15,2013-11-14 20:54:00,
2013-11-14 14:59:00,56.2,16.7,30.07,East,96,4.0,6.0,21,0.00,,,0.00,Wunderground v.1.15,2013-11-14 20:59:00,
2013-11-14 15:09:00,56.2,16.7,30.06,SSW,212,5.0,5.0,21,0.00,,,0.00,Wunderground v.1.15,2013-11-14 21:09:00,
2013-11-14 15:19:00,56.7,18.2,30.06,ENE,68,3.0,5.0,22,0.00,,,0.00,Wunderground v.1.15,2013-11-14 21:19:00,
2013-11-14 15:29:00,55.6,16.2,30.06,SE,136,3.0,3.0,21,0.00,,,0.00,Wunderground v.1.15,2013-11-14 21:29:00,
2013-11-14 15:39:00,55.2,15.9,30.06,SE,134,4.0,4.0,21,0.00,,,0.00,Wunderground v.1.15,2013-11-14 21:39:00,
2013-11-14 15:44:00,55.1,15.8,30.06,SE,142,4.0,6.0,21,0.00,,,0.00,Wunderground v.1.15,2013-11-14 21:44:00,
2013-11-14 15:54:00,54.9,17.7,30.06,East,96,1.0,3.0,23,0.00,,,0.00,Wunderground v.1.15,2013-11-14 21:54:00,
2013-11-14 15:59:00,54.9,16.7,30.06,East,79,1.0,2.0,22,0.00,,,0.00,Wunderground v.1.15,2013-11-14 21:59:00,
2013-11-14 16:09:00,54.6,16.5,30.06,East,97,3.0,3.0,22,0.00,,,0.00,Wunderground v.1.15,2013-11-14 22:09:00,
2013-11-14 16:14:00,54.3,17.2,30.06,ESE,110,2.0,3.0,23,0.00,,,0.00,Wunderground v.1.15,2013-11-14 22:14:00,
2013-11-14 16:19:00,54.1,17.1,30.06,ENE,74,2.0,2.0,23,0.00,,,0.00,Wunderground v.1.15,2013-11-14 22:19:00,
2013-11-14 16:24:00,53.9,16.9,30.05,ESE,121,1.0,2.0,23,0.00,,,0.00,Wunderground v.1.15,2013-11-14 22:24:00,
2013-11-14 16:29:00,53.8,17.8,30.06,SE,134,1.0,2.0,24,0.00,,,0.00,Wunderground v.1.15,2013-11-14 22:29:00,
2013-11-14 16:34:00,53.6,18.6,30.06,SE,128,1.0,2.0,25,0.00,,,0.00,Wunderground v.1.15,2013-11-14 22:34:00,
2013-11-14 16:44:00,53.3,17.4,30.06,ESE,107,1.0,2.0,24,0.00,,,0.00,Wunderground v.1.15,2013-11-14 22:44:00,
2013-11-14 16:54:00,52.8,17.9,30.05,East,94,0.0,2.0,25,0.00,,,0.00,Wunderground v.1.15,2013-11-14 22:54:00,
2013-11-14 16:59:00,52.6,17.7,30.05,ESE,113,0.0,2.0,25,0.00,,,0.00,Wunderground v.1.15,2013-11-14 22:59:00,
2013-11-14 17:04:00,52.4,17.6,30.05,ESE,108,0.0,2.0,25,0.00,,,0.00,Wunderground v.1.15,2013-11-14 23:04:00,
2013-11-14 17:14:00,51.9,18.0,30.04,ESE,103,0.0,2.0,26,0.00,,,0.00,Wunderground v.1.15,2013-11-14 23:14:00,
2013-11-14 17:24:00,51.4,18.5,30.04,ESE,115,0.0,2.0,27,0.00,,,0.00,Wunderground v.1.15,2013-11-14 23:24:00,
2013-11-14 17:29:00,51.2,18.3,30.04,SE,142,0.0,2.0,27,0.00,,,0.00,Wunderground v.1.15,2013-11-14 23:29:00,
2013-11-14 17:39:00,50.8,18.8,30.04,ESE,111,0.0,2.0,28,0.00,,,0.00,Wunderground v.1.15,2013-11-14 23:39:00,
2013-11-14 17:49:00,50.0,18.9,30.04,ESE,111,0.0,2.0,29,0.00,,,0.00,Wunderground v.1.15,2013-11-14 23:49:00,
2013-11-14 17:59:00,49.7,18.7,30.04,ESE,112,0.0,2.0,29,0.00,,,0.00,Wunderground v.1.15,2013-11-14 23:59:00,
2013-11-14 18:09:00,48.9,18.8,30.04,ESE,111,0.0,2.0,30,0.00,,,0.00,Wunderground v.1.15,2013-11-15 00:09:00,
2013-11-14 18:19:00,49.2,19.8,30.04,East,101,0.0,2.0,31,0.00,,,0.00,Wunderground v.1.15,2013-11-15 00:19:00,
2013-11-14 18:24:00,49.9,20.4,30.04,ESE,110,0.0,2.0,31,0.00,,,0.00,Wunderground v.1.15,2013-11-15 00:24:00,
2013-11-14 18:29:00,50.1,21.3,30.04,SE,128,0.0,2.0,32,0.00,,,0.00,Wunderground v.1.15,2013-11-15 00:29:00,
2013-11-14 18:34:00,50.2,21.4,30.04,ESE,113,0.0,2.0,32,0.00,,,0.00,Wunderground v.1.15,2013-11-15 00:34:00,
2013-11-14 18:39:00,50.3,21.5,30.04,SE,124,0.0,2.0,32,0.00,,,0.00,Wunderground v.1.15,2013-11-15 00:39:00,
2013-11-14 18:49:00,50.3,21.5,30.04,ESE,104,0.0,2.0,32,0.00,,,0.00,Wunderground v.1.15,2013-11-15 00:49:00,
2013-11-14 18:54:00,50.2,22.2,30.04,ESE,122,0.0,2.0,33,0.00,,,0.00,Wunderground v.1.15,2013-11-15 00:54:00,
2013-11-14 18:59:00,49.9,21.9,30.04,East,100,0.0,2.0,33,0.00,,,0.00,Wunderground v.1.15,2013-11-15 00:59:00,
2013-11-14 19:04:00,49.6,22.3,30.05,ESE,113,0.0,2.0,34,0.00,,,0.00,Wunderground v.1.15,2013-11-15 01:04:00,
2013-11-14 19:09:00,49.2,22.0,30.05,ESE,110,0.0,2.0,34,0.00,,,0.00,Wunderground v.1.15,2013-11-15 01:09:00,
2013-11-14 19:14:00,49.1,21.9,30.04,SE,129,0.0,2.0,34,0.00,,,0.00,Wunderground v.1.15,2013-11-15 01:14:00,
2013-11-14 19:24:00,49.1,21.9,30.04,East,98,0.0,2.0,34,0.00,,,0.00,Wunderground v.1.15,2013-11-15 01:24:00,
2013-11-14 19:29:00,49.2,22.0,30.04,SE,124,0.0,2.0,34,0.00,,,0.00,Wunderground v.1.15,2013-11-15 01:29:00,
2013-11-14 19:34:00,49.2,22.7,30.04,East,79,1.0,2.0,35,0.00,,,0.00,Wunderground v.1.15,2013-11-15 01:34:00,
2013-11-14 19:39:00,49.2,22.7,30.04,SE,132,1.0,1.0,35,0.00,,,0.00,Wunderground v.1.15,2013-11-15 01:39:00,
2013-11-14 19:44:00,49.1,23.3,30.04,East,98,1.0,2.0,36,0.00,,,0.00,Wunderground v.1.15,2013-11-15 01:44:00,
2013-11-14 19:54:00,49.2,22.7,30.04,East,95,1.0,2.0,35,0.00,,,0.00,Wunderground v.1.15,2013-11-15 01:54:00,
2013-11-14 19:59:00,49.3,23.4,30.04,ESE,114,1.0,1.0,36,0.00,,,0.00,Wunderground v.1.15,2013-11-15 01:59:00,
2013-11-14 20:04:00,49.2,23.4,30.04,ESE,116,1.0,2.0,36,0.00,,,0.00,Wunderground v.1.15,2013-11-15 02:04:00,
2013-11-14 20:09:00,49.2,23.4,30.04,ESE,110,2.0,2.0,36,0.00,,,0.00,Wunderground v.1.15,2013-11-15 02:09:00,
2013-11-14 20:14:00,49.1,23.3,30.04,East,100,1.0,4.0,36,0.00,,,0.00,Wunderground v.1.15,2013-11-15 02:14:00,
2013-11-14 20:24:00,49.0,23.2,30.03,East,79,2.0,4.0,36,0.00,,,0.00,Wunderground v.1.15,2013-11-15 02:24:00,
2013-11-14 20:29:00,48.9,23.1,30.03,East,88,1.0,1.0,36,0.00,,,0.00,Wunderground v.1.15,2013-11-15 02:29:00,
2013-11-14 20:39:00,48.5,23.4,30.03,East,86,1.0,1.0,37,0.00,,,0.00,Wunderground v.1.15,2013-11-15 02:39:00,
2013-11-14 20:44:00,48.2,23.1,30.03,ENE,67,1.0,3.0,37,0.00,,,0.00,Wunderground v.1.15,2013-11-15 02:44:00,
2013-11-14 20:54:00,47.9,23.5,30.03,ESE,113,2.0,2.0,38,0.00,,,0.00,Wunderground v.1.15,2013-11-15 02:54:00,
2013-11-14 20:59:00,47.8,23.4,30.03,ESE,107,1.0,1.0,38,0.00,,,0.00,Wunderground v.1.15,2013-11-15 02:59:00,
2013-11-14 21:04:00,47.6,23.8,30.03,SE,128,1.0,3.0,39,0.00,,,0.00,Wunderground v.1.15,2013-11-15 03:04:00,
2013-11-14 21:09:00,47.5,23.7,30.04,ESE,103,1.0,2.0,39,0.00,,,0.00,Wunderground v.1.15,2013-11-15 03:09:00,
2013-11-14 21:14:00,47.4,23.7,30.03,ENE,77,1.0,2.0,39,0.00,,,0.00,Wunderground v.1.15,2013-11-15 03:14:00,
2013-11-14 21:19:00,47.2,24.1,30.03,SE,132,1.0,1.0,40,0.00,,,0.00,Wunderground v.1.15,2013-11-15 03:19:00,
2013-11-14 21:29:00,46.9,23.8,30.03,ESE,118,1.0,1.0,40,0.00,,,0.00,Wunderground v.1.15,2013-11-15 03:29:00,
2013-11-14 21:34:00,46.6,24.1,30.03,ESE,121,1.0,2.0,41,0.00,,,0.00,Wunderground v.1.15,2013-11-15 03:34:00,
2013-11-14 21:39:00,46.5,24.0,30.03,ESE,108,1.0,2.0,41,0.00,,,0.00,Wunderground v.1.15,2013-11-15 03:39:00,
2013-11-14 21:44:00,46.5,24.0,30.03,East,97,1.0,2.0,41,0.00,,,0.00,Wunderground v.1.15,2013-11-15 03:44:00,
2013-11-14 21:49:00,46.6,24.1,30.03,ESE,118,1.0,1.0,41,0.00,,,0.00,Wunderground v.1.15,2013-11-15 03:49:00,
2013-11-14 21:59:00,46.6,24.1,30.03,ESE,108,1.0,2.0,41,0.00,,,0.00,Wunderground v.1.15,2013-11-15 03:59:00,
2013-11-14 22:04:00,46.6,24.1,30.03,SE,145,1.0,2.0,41,0.00,,,0.00,Wunderground v.1.15,2013-11-15 04:04:00,
2013-11-14 22:09:00,46.4,24.5,30.03,ESE,120,1.0,1.0,42,0.00,,,0.00,Wunderground v.1.15,2013-11-15 04:09:00,
2013-11-14 22:14:00,46.4,24.5,30.03,SE,142,1.0,2.0,42,0.00,,,0.00,Wunderground v.1.15,2013-11-15 04:14:00,
2013-11-14 22:19:00,46.4,24.5,30.03,ESE,117,1.0,2.0,42,0.00,,,0.00,Wunderground v.1.15,2013-11-15 04:19:00,
2013-11-14 22:29:00,46.7,24.8,30.03,East,96,1.0,2.0,42,0.00,,,0.00,Wunderground v.1.15,2013-11-15 04:29:00,
2013-11-14 22:34:00,46.5,24.6,30.03,SE,132,1.0,2.0,42,0.00,,,0.00,Wunderground v.1.15,2013-11-15 04:34:00,
2013-11-14 22:39:00,46.4,24.5,30.03,East,88,1.0,2.0,42,0.00,,,0.00,Wunderground v.1.15,2013-11-15 04:39:00,
2013-11-14 22:44:00,46.4,24.5,30.03,East,101,1.0,2.0,42,0.00,,,0.00,Wunderground v.1.15,2013-11-15 04:44:00,
2013-11-14 22:49:00,46.5,25.2,30.03,East,99,1.0,2.0,43,0.00,,,0.00,Wunderground v.1.15,2013-11-15 04:49:00,
2013-11-14 22:59:00,46.5,25.2,30.03,SE,128,1.0,1.0,43,0.00,,,0.00,Wunderground v.1.15,2013-11-15 04:59:00,
2013-11-14 23:04:00,46.5,25.2,30.03,ESE,103,1.0,2.0,43,0.00,,,0.00,Wunderground v.1.15,2013-11-15 05:04:00,
2013-11-14 23:09:00,46.4,25.1,30.03,ESE,104,1.0,1.0,43,0.00,,,0.00,Wunderground v.1.15,2013-11-15 05:09:00,
2013-11-14 23:14:00,46.5,25.2,30.03,ESE,115,1.0,2.0,43,0.00,,,0.00,Wunderground v.1.15,2013-11-15 05:14:00,
2013-11-14 23:19:00,46.5,25.7,30.03,ESE,111,1.0,1.0,44,0.00,,,0.00,Wunderground v.1.15,2013-11-15 05:19:00,
2013-11-14 23:24:00,46.5,25.7,30.03,ESE,108,1.0,2.0,44,0.00,,,0.00,Wunderground v.1.15,2013-11-15 05:24:00,
2013-11-14 23:34:00,46.6,25.8,30.02,ESE,111,1.0,2.0,44,0.00,,,0.00,Wunderground v.1.15,2013-11-15 05:34:00,
2013-11-14 23:39:00,46.5,25.7,30.03,ESE,105,1.0,2.0,44,0.00,,,0.00,Wunderground v.1.15,2013-11-15 05:39:00,
2013-11-14 23:44:00,46.6,25.8,30.03,ESE,113,1.0,2.0,44,0.00,,,0.00,Wunderground v.1.15,2013-11-15 05:44:00,
2013-11-14 23:49:00,46.7,25.9,30.03,ESE,117,1.0,2.0,44,0.00,,,0.00,Wunderground v.1.15,2013-11-15 05:49:00,
2013-11-14 23:54:00,46.8,26.0,30.03,East,90,1.0,2.0,44,0.00,,,0.00,Wunderground v.1.15,2013-11-15 05:54:00,